Time;durP1;ratioP1;P1;durP2;ratioP2;P2;SDS_P1;SDS_P2;PMS_P1;PMS_P2;Temp;Humidity;BMP_temperature;BMP_pressure;BME280_temperature;BME280_humidity;BME280_pressure;Samples;Min_cycle;Max_cycle;Signal;HPM_P1;HPM_P2
2023/05/19 00:00:16;;;;;;;23.37;11.83;;;;;;;18.39;51.01;100594.90;123218;1099;104379;-75
2023/05/19 00:03:05;;;;;;;24.15;12.15;;;;;;;18.37;50.87;100600.20;123731;1099;104341;-73
2023/05/19 00:05:39;;;;;;;21.90;12.13;;;;;;;18.35;51.28;100595.75;123626;1099;104361;-73
2023/05/19 00:08:10;;;;;;;22.83;12.13;;;;;;;18.33;51.72;100601.05;123604;1099;104309;-73
2023/05/19 00:10:40;;;;;;;21.50;11.90;;;;;;;18.30;52.04;100603.69;123584;1099;104389;-74
2023/05/19 00:13:08;;;;;;;22.33;12.00;;;;;;;18.29;52.38;100610.78;123706;1099;104325;-73
2023/05/19 00:15:38;;;;;;;24.20;12.10;;;;;;;18.26;52.23;100605.45;123525;1099;104322;-74
2023/05/19 00:18:07;;;;;;;23.67;11.73;;;;;;;18.25;52.89;100603.67;123492;1098;104268;-74
2023/05/19 00:20:37;;;;;;;23.10;12.15;;;;;;;18.24;53.43;100609.84;123175;1102;104384;-74
2023/05/19 00:23:06;;;;;;;23.53;12.13;;;;;;;18.20;53.98;100609.81;123647;1099;104354;-74
2023/05/19 00:25:34;;;;;;;23.33;12.77;;;;;;;18.18;54.66;100616.89;123580;1099;104265;-74
2023/05/19 00:28:03;;;;;;;23.20;12.70;;;;;;;18.15;54.65;100617.75;123506;1099;104306;-74
2023/05/19 00:30:32;;;;;;;22.97;12.60;;;;;;;18.13;55.06;100619.52;123579;1099;104344;-73
2023/05/19 00:33:01;;;;;;;21.80;11.67;;;;;;;18.11;54.54;100616.85;123589;1099;104626;-73
2023/05/19 00:35:29;;;;;;;21.20;12.13;;;;;;;18.11;54.95;100624.82;123454;1099;104348;-73
2023/05/19 00:37:59;;;;;;;21.73;12.70;;;;;;;18.11;54.40;100619.52;123577;1099;104277;-74
2023/05/19 00:40:30;;;;;;;22.33;12.07;;;;;;;18.09;54.77;100613.31;123505;1098;104245;-74
2023/05/19 00:42:59;;;;;;;23.80;12.47;;;;;;;18.11;55.92;100615.98;123595;1099;104319;-74
2023/05/19 00:45:28;;;;;;;23.77;13.13;;;;;;;18.09;55.53;100617.71;123559;1099;104307;-74
2023/05/19 00:47:56;;;;;;;21.50;12.67;;;;;;;18.08;55.97;100615.95;123569;1098;104328;-74
2023/05/19 00:50:26;;;;;;;23.03;12.03;;;;;;;18.09;55.78;100615.05;123198;1099;104248;-74
2023/05/19 00:52:55;;;;;;;22.23;12.13;;;;;;;18.08;56.35;100614.17;123630;1099;104265;-74
2023/05/19 00:55:27;;;;;;;23.43;13.27;;;;;;;18.07;56.47;100614.17;123708;1099;104288;-74
2023/05/19 00:57:57;;;;;;;24.17;12.37;;;;;;;18.05;56.85;100614.16;123581;1098;104398;-73
2023/05/19 01:00:26;;;;;;;20.97;12.73;;;;;;;18.04;57.00;100624.77;123603;1099;104389;-75
2023/05/19 01:02:54;;;;;;;22.63;12.87;;;;;;;18.00;57.05;100618.55;123245;1099;104373;-74
2023/05/19 01:05:23;;;;;;;23.20;12.80;;;;;;;17.99;57.81;100618.55;123308;1099;104329;-74
2023/05/19 01:07:52;;;;;;;22.93;12.23;;;;;;;17.94;58.00;100623.82;123587;1099;104389;-73
2023/05/19 01:10:21;;;;;;;22.13;11.83;;;;;;;17.94;57.99;100618.52;123527;1098;104329;-75
2023/05/19 01:12:49;;;;;;;25.57;12.70;;;;;;;17.94;58.59;100608.77;123234;1099;104530;-75
2023/05/19 01:15:18;;;;;;;20.93;12.23;;;;;;;17.92;59.00;100615.84;123258;1099;104261;-76
2023/05/19 01:17:55;;;;;;;23.70;12.53;;;;;;;17.91;59.24;100616.70;123247;1100;104338;-75
2023/05/19 01:20:32;;;;;;;22.77;12.60;;;;;;;17.88;59.63;100614.03;123615;1099;104258;-74
2023/05/19 01:23:27;;;;;;;24.50;12.57;;;;;;;17.86;59.71;100621.07;123587;1099;104347;-73
2023/05/19 01:26:24;;;;;;;24.47;12.90;;;;;;;17.85;60.15;100624.59;123578;1099;104307;-75
2023/05/19 01:29:27;;;;;;;24.03;12.93;;;;;;;17.83;59.59;100623.70;123487;1099;104277;-74
2023/05/19 01:31:59;;;;;;;24.10;12.73;;;;;;;17.83;60.56;100628.13;123422;1098;104348;-73
2023/05/19 01:34:32;;;;;;;23.50;12.63;;;;;;;17.82;61.07;100629.00;123528;1099;104223;-72
2023/05/19 01:37:02;;;;;;;24.93;12.50;;;;;;;17.79;60.90;100629.85;123519;1099;104310;-74
2023/05/19 01:39:32;;;;;;;24.55;12.65;;;;;;;17.78;61.60;100631.62;123475;1099;104366;-74
2023/05/19 01:42:03;;;;;;;23.33;12.07;;;;;;;17.79;61.42;100641.38;123190;1100;104326;-74
2023/05/19 01:44:32;;;;;;;23.90;13.10;;;;;;;17.78;61.52;100633.41;123662;1098;104271;-74
2023/05/19 01:47:02;;;;;;;23.57;12.83;;;;;;;17.75;62.24;100644.87;123605;1099;104677;-74
2023/05/19 01:49:30;;;;;;;22.60;13.10;;;;;;;17.74;61.45;100642.20;123660;1099;104216;-75
2023/05/19 01:51:59;;;;;;;23.00;13.17;;;;;;;17.75;61.55;100636.03;123269;1099;104329;-75
2023/05/19 01:54:28;;;;;;;23.47;12.80;;;;;;;17.74;62.52;100642.20;123504;1098;104281;-73
2023/05/19 01:57:06;;;;;;;22.57;13.23;;;;;;;17.69;62.21;100638.62;123535;1098;104265;-74
2023/05/19 01:59:51;;;;;;;24.03;13.23;;;;;;;17.65;62.58;100642.12;123210;1099;104207;-75
2023/05/19 02:02:32;;;;;;;22.60;12.90;;;;;;;17.58;63.14;100633.23;123403;1099;104386;-74
2023/05/19 02:05:09;;;;;;;23.00;12.40;;;;;;;17.53;63.09;100633.18;123549;1099;104360;-75
2023/05/19 02:07:43;;;;;;;22.10;12.87;;;;;;;17.48;63.02;100634.88;123656;1099;104341;-73
2023/05/19 02:10:18;;;;;;;23.20;12.77;;;;;;;17.47;63.45;100637.52;123540;1099;104264;-75
2023/05/19 02:12:50;;;;;;;22.77;12.47;;;;;;;17.42;63.96;100638.38;123612;1099;104259;-74
2023/05/19 02:15:25;;;;;;;21.57;12.53;;;;;;;17.39;63.87;100651.61;123266;1099;104220;-74
2023/05/19 02:17:56;;;;;;;22.73;13.03;;;;;;;17.39;64.06;100653.36;123254;1099;104338;-74
2023/05/19 02:20:25;;;;;;;21.73;12.37;;;;;;;17.36;64.37;100656.89;123582;1099;104217;-74
2023/05/19 02:22:54;;;;;;;24.90;13.67;;;;;;;17.34;64.73;100655.08;123725;1099;104195;-73
2023/05/19 02:25:23;;;;;;;23.37;12.83;;;;;;;17.30;64.96;100650.64;123507;1099;105486;-74
2023/05/19 02:27:51;;;;;;;26.33;12.80;;;;;;;17.23;64.98;100663.83;123537;1099;104236;-74
2023/05/19 02:30:20;;;;;;;22.47;12.03;;;;;;;17.22;65.22;100667.34;123430;1099;104418;-74
2023/05/19 02:32:49;;;;;;;25.07;12.37;;;;;;;17.19;65.21;100664.66;123504;1099;104297;-73
2023/05/19 02:35:18;;;;;;;21.53;12.57;;;;;;;17.19;65.13;100666.43;123514;1099;104242;-74
2023/05/19 02:37:46;;;;;;;22.53;13.03;;;;;;;17.17;65.19;100676.11;123520;1099;104290;-74
2023/05/19 02:40:16;;;;;;;23.57;12.63;;;;;;;17.14;66.30;100678.72;123538;1099;104335;-74
2023/05/19 02:42:45;;;;;;;23.37;11.93;;;;;;;17.11;65.89;100676.95;123557;1099;104354;-75
2023/05/19 02:45:14;;;;;;;23.10;12.63;;;;;;;17.09;66.35;100683.97;123142;1099;104399;-73
2023/05/19 02:47:43;;;;;;;20.70;12.13;;;;;;;17.07;67.56;100683.07;123225;1099;104246;-74
2023/05/19 02:50:11;;;;;;;30.63;12.50;;;;;;;17.05;66.69;100684.83;123224;1099;104251;-75
2023/05/19 02:52:40;;;;;;;21.87;13.20;;;;;;;17.05;67.16;100692.78;123572;1099;104345;-75
2023/05/19 02:55:15;;;;;;;26.93;13.10;;;;;;;17.05;66.39;100706.03;123547;1099;104488;-74
2023/05/19 02:57:44;;;;;;;24.70;12.53;;;;;;;17.07;67.14;100701.63;123635;1099;104190;-75
2023/05/19 03:00:14;;;;;;;23.05;12.40;;;;;;;17.11;67.71;100708.77;123254;1099;104296;-74
2023/05/19 03:02:43;;;;;;;21.93;12.30;;;;;;;17.10;67.12;100701.67;123397;1099;104810;-75
2023/05/19 03:05:13;;;;;;;24.77;13.03;;;;;;;17.13;66.62;100700.83;123369;1099;104444;-74
2023/05/19 03:07:41;;;;;;;26.43;12.60;;;;;;;17.16;67.94;100700.86;123147;1099;104437;-73
2023/05/19 03:10:10;;;;;;;23.47;12.33;;;;;;;17.15;68.61;100701.73;123196;1102;104322;-73
2023/05/19 03:12:39;;;;;;;26.95;13.35;;;;;;;17.13;68.18;100709.66;123628;1099;104270;-73
2023/05/19 03:15:11;;;;;;;27.50;13.17;;;;;;;17.17;67.85;100702.63;123316;1100;104328;-73
2023/05/19 03:17:40;;;;;;;25.80;12.57;;;;;;;17.20;68.01;100706.22;123666;1099;104268;-73
2023/05/19 03:20:10;;;;;;;27.07;13.07;;;;;;;17.23;68.44;100700.05;123506;1099;104281;-73
2023/05/19 03:22:39;;;;;;;22.73;12.60;;;;;;;17.24;68.49;100704.48;123641;1099;104338;-73
2023/05/19 03:25:09;;;;;;;23.47;12.43;;;;;;;17.25;69.18;100703.62;123473;1098;104236;-72
2023/05/19 03:27:40;;;;;;;23.83;13.30;;;;;;;17.23;69.00;100705.34;123517;1099;104752;-73
2023/05/19 03:30:12;;;;;;;24.77;13.07;;;;;;;17.22;69.08;100698.28;123317;1099;104225;-74
2023/05/19 03:32:52;;;;;;;23.00;12.37;;;;;;;17.21;69.89;100694.72;123178;1099;104431;-73
2023/05/19 03:35:21;;;;;;;22.57;11.93;;;;;;;17.19;68.92;100707.08;123701;1099;104360;-74
2023/05/19 03:37:49;;;;;;;23.57;12.60;;;;;;;17.20;69.29;100716.83;123516;1099;104313;-73
2023/05/19 03:40:18;;;;;;;24.93;12.13;;;;;;;17.20;69.65;100714.18;123363;1099;104224;-76
2023/05/19 03:42:46;;;;;;;22.17;12.17;;;;;;;17.21;69.20;100715.06;123795;1099;104271;-73
2023/05/19 03:45:15;;;;;;;28.47;12.97;;;;;;;17.24;69.12;100718.63;123355;1098;104424;-73
2023/05/19 03:47:46;;;;;;;27.43;12.37;;;;;;;17.24;69.75;100718.63;123320;1099;104255;-74
2023/05/19 03:50:48;;;;;;;22.77;12.97;;;;;;;17.23;69.37;100726.56;123283;1099;104627;-75
2023/05/19 03:53:21;;;;;;;22.37;12.13;;;;;;;17.28;69.30;100723.97;123330;1099;104274;-74
2023/05/19 03:55:49;;;;;;;24.80;12.47;;;;;;;17.32;69.79;100737.28;123415;1099;104399;-74
2023/05/19 03:58:18;;;;;;;22.30;12.00;;;;;;;17.30;69.71;100732.85;123372;1099;104393;-74
2023/05/19 04:00:46;;;;;;;21.50;11.97;;;;;;;17.29;70.74;100731.06;123265;1099;104341;-73
2023/05/19 04:03:16;;;;;;;21.83;12.30;;;;;;;17.29;69.91;100733.71;123698;1099;104244;-74
2023/05/19 04:05:44;;;;;;;22.67;12.67;;;;;;;17.28;69.82;100723.97;123668;1099;104342;-74
2023/05/19 04:08:13;;;;;;;24.13;11.83;;;;;;;17.31;69.87;100737.27;123500;1099;104252;-73
2023/05/19 04:10:42;;;;;;;21.63;12.13;;;;;;;17.32;70.26;100737.28;123740;1099;104389;-72
2023/05/19 04:13:10;;;;;;;21.20;12.87;;;;;;;17.33;70.08;100733.77;123741;1099;104246;-73
2023/05/19 04:15:40;;;;;;;22.97;11.70;;;;;;;17.34;70.06;100737.30;123771;1099;104197;-75
2023/05/19 04:18:08;;;;;;;22.73;11.67;;;;;;;17.36;70.50;100727.63;123506;1099;104268;-77
2023/05/19 04:20:39;;;;;;;22.10;11.63;;;;;;;17.37;70.29;100724.07;123671;1099;104303;-77
2023/05/19 04:23:08;;;;;;;19.67;11.40;;;;;;;17.46;70.09;100734.79;124133;1099;104317;-77
2023/05/19 04:25:36;;;;;;;24.03;11.67;;;;;;;17.49;70.60;100732.17;124631;1099;104348;-77
2023/05/19 04:28:06;;;;;;;22.40;11.75;;;;;;;17.63;69.60;100742.94;124711;1099;104165;-78
2023/05/19 04:30:35;;;;;;;23.33;11.80;;;;;;;17.71;69.87;100743.02;124326;1099;104198;-77
2023/05/19 04:33:04;;;;;;;22.60;12.40;;;;;;;17.78;70.21;100747.53;124333;1099;104291;-79
2023/05/19 04:35:33;;;;;;;20.87;11.30;;;;;;;17.86;69.71;100747.61;124173;1099;104274;-79
2023/05/19 04:38:02;;;;;;;21.63;12.30;;;;;;;17.89;69.92;100748.55;124458;1099;104319;-81
2023/05/19 04:40:32;;;;;;;23.40;11.80;;;;;;;17.93;69.64;100746.80;124410;1099;104329;-82
2023/05/19 04:43:01;;;;;;;23.93;12.30;;;;;;;17.93;69.73;100739.72;124297;1098;104242;-77
2023/05/19 04:45:31;;;;;;;23.27;11.53;;;;;;;17.98;69.69;100754.81;124378;1099;104239;-82
2023/05/19 04:48:01;;;;;;;23.35;12.20;;;;;;;18.00;69.63;100753.05;123876;1099;104409;-77
2023/05/19 04:50:32;;;;;;;20.87;11.27;;;;;;;18.03;69.74;100758.39;124823;1099;104243;-76
2023/05/19 04:53:00;;;;;;;23.17;11.93;;;;;;;18.10;69.66;100762.89;123826;1099;104297;-76
2023/05/19 04:55:29;;;;;;;26.23;12.50;;;;;;;18.14;69.44;100754.09;124453;1099;104268;-79
2023/05/19 04:57:59;;;;;;;23.40;11.97;;;;;;;18.20;69.24;100756.80;124286;1099;104246;-79
2023/05/19 05:00:28;;;;;;;22.05;12.05;;;;;;;18.26;69.12;100761.25;124670;1099;104993;-79
2023/05/19 05:03:04;;;;;;;24.23;11.80;;;;;;;18.31;69.02;100768.39;124515;1099;104242;-79
2023/05/19 05:05:34;;;;;;;26.60;12.50;;;;;;;18.35;68.82;100763.98;124899;1099;104691;-80
2023/05/19 05:08:02;;;;;;;22.47;12.20;;;;;;;18.43;68.75;100764.95;124932;1099;104222;-79
2023/05/19 05:10:34;;;;;;;21.50;11.00;;;;;;;18.48;68.50;100765.87;124490;1099;104275;-77
2023/05/19 05:13:04;;;;;;;23.47;11.60;;;;;;;18.56;68.49;100760.61;124511;1099;104347;-78
2023/05/19 05:15:34;;;;;;;24.23;11.53;;;;;;;18.66;68.43;100769.53;124401;1099;104254;-79
2023/05/19 05:18:04;;;;;;;23.03;11.40;;;;;;;18.68;68.23;100765.11;124377;1099;104341;-79
2023/05/19 05:20:35;;;;;;;25.27;11.67;;;;;;;18.68;68.36;100771.33;125148;1099;104402;-80
2023/05/19 05:23:04;;;;;;;24.37;10.97;;;;;;;18.68;67.97;100763.36;126833;1099;102885;-78
2023/05/19 05:25:35;;;;;;;21.20;10.73;;;;;;;18.70;67.50;100766.02;124629;1099;104312;-77
2023/05/19 05:28:04;;;;;;;20.63;11.47;;;;;;;18.70;68.14;100771.34;124864;1099;104219;-79
2023/05/19 05:30:35;;;;;;;25.83;12.77;;;;;;;18.75;68.06;100779.34;125593;1099;104145;-78
2023/05/19 05:33:05;;;;;;;27.50;12.03;;;;;;;18.84;67.78;100779.41;124444;1099;104246;-80
2023/05/19 05:35:36;;;;;;;20.47;10.53;;;;;;;18.93;67.52;100783.91;124897;1099;102048;-80
2023/05/19 05:38:06;;;;;;;22.63;10.70;;;;;;;19.04;67.61;100783.09;124548;1098;104235;-83
2023/05/19 05:40:34;;;;;;;23.10;11.83;;;;;;;19.16;66.99;100779.59;124582;1099;104271;-83
2023/05/19 05:43:07;;;;;;;21.77;11.47;;;;;;;19.24;67.08;100776.97;124491;1099;104380;-81
2023/05/19 05:45:40;;;;;;;24.23;11.48;;;;;;;19.29;66.43;100779.66;124820;1099;104354;-79
2023/05/19 05:48:11;;;;;;;23.03;11.23;;;;;;;19.37;66.62;100776.16;124693;1099;104259;-82
2023/05/19 05:50:42;;;;;;;23.90;11.30;;;;;;;19.49;66.98;100790.38;124977;1099;104258;-79
2023/05/19 05:53:19;;;;;;;22.33;11.57;;;;;;;19.64;66.55;100789.55;124261;1102;104648;-79
2023/05/19 05:55:52;;;;;;;21.20;12.20;;;;;;;19.72;65.83;100787.80;124797;1099;102100;-83
2023/05/19 05:58:23;;;;;;;22.47;11.30;;;;;;;19.70;65.32;100785.13;124868;1099;104220;-79
2023/05/19 06:00:56;;;;;;;20.47;11.20;;;;;;;19.67;65.92;100784.24;124905;1099;104258;-79
2023/05/19 06:03:25;;;;;;;21.00;10.58;;;;;;;19.68;65.54;100784.25;125238;1099;102571;-77
2023/05/19 06:05:55;;;;;;;19.50;10.77;;;;;;;19.68;65.33;100781.58;125083;1099;102831;-82
2023/05/19 06:08:25;;;;;;;22.23;10.80;;;;;;;19.81;65.37;100781.65;125154;1099;102406;-77
2023/05/19 06:10:55;;;;;;;20.97;11.40;;;;;;;19.85;65.42;100789.65;124652;1099;104332;-77
2023/05/19 06:13:25;;;;;;;24.10;11.50;;;;;;;19.90;65.12;100781.67;124518;1098;104168;-73
2023/05/19 06:15:54;;;;;;;24.70;10.83;;;;;;;19.98;64.63;100790.55;124207;1099;104204;-78
2023/05/19 06:18:31;;;;;;;23.10;11.70;;;;;;;20.02;64.24;100788.77;124520;1098;104351;-75
2023/05/19 06:21:00;;;;;;;19.53;10.83;;;;;;;20.01;63.96;100793.22;124869;1099;104198;-80
2023/05/19 06:23:33;;;;;;;22.60;10.47;;;;;;;20.06;64.73;100791.44;125053;1099;104217;-78
2023/05/19 06:26:09;;;;;;;21.80;10.83;;;;;;;20.14;64.80;100790.58;124474;1099;104182;-75
2023/05/19 06:28:42;;;;;;;26.37;10.32;;;;;;;20.16;64.32;100791.45;124284;1099;104115;-74
2023/05/19 06:31:13;;;;;;;23.33;10.87;;;;;;;20.24;63.87;100787.92;124291;1098;102527;-74
2023/05/19 06:33:48;;;;;;;20.20;10.97;;;;;;;20.36;64.09;100797.67;124347;1099;102591;-76
2023/05/19 06:36:17;;;;;;;19.77;11.10;;;;;;;20.52;63.26;100803.92;124573;1099;104152;-77
2023/05/19 06:38:46;;;;;;;22.13;11.37;;;;;;;20.67;62.65;100803.03;124698;1099;104283;-77
2023/05/19 06:41:15;;;;;;;21.87;10.57;;;;;;;20.76;62.06;100805.69;124565;1099;104336;-77
2023/05/19 06:43:46;;;;;;;23.10;10.93;;;;;;;20.88;62.75;100802.13;124567;1099;104271;-77
2023/05/19 06:46:16;;;;;;;22.90;10.67;;;;;;;21.04;61.96;100791.42;124655;1099;104373;-78
2023/05/19 06:48:45;;;;;;;24.13;11.03;;;;;;;21.17;62.28;100796.69;124488;1099;104290;-79
2023/05/19 06:51:20;;;;;;;22.85;11.45;;;;;;;21.29;61.65;100810.91;124609;1099;102915;-80
2023/05/19 06:53:53;;;;;;;20.33;10.90;;;;;;;21.41;61.92;100800.19;124725;1100;102037;-78
2023/05/19 06:56:22;;;;;;;23.33;11.30;;;;;;;21.52;61.14;100800.17;124988;1099;104204;-75
2023/05/19 06:59:05;;;;;;;25.03;11.03;;;;;;;21.60;60.42;100806.36;124339;1099;104357;-77
2023/05/19 07:01:44;;;;;;;21.23;11.50;;;;;;;21.68;60.84;100807.20;124295;1099;104351;-79
2023/05/19 07:04:13;;;;;;;20.43;10.67;;;;;;;21.69;59.63;100802.73;124303;1102;104261;-74
2023/05/19 07:06:42;;;;;;;23.10;10.83;;;;;;;21.72;59.92;100802.72;124284;1102;104226;-72
2023/05/19 07:09:13;;;;;;;20.27;10.50;;;;;;;21.77;59.85;100794.67;124808;1098;104232;-78
2023/05/19 07:11:44;;;;;;;24.63;10.43;;;;;;;21.86;59.70;100797.30;124261;1102;103454;-72
2023/05/19 07:14:13;;;;;;;23.67;10.97;;;;;;;22.01;58.87;100793.66;124662;1099;104271;-74
2023/05/19 07:16:43;;;;;;;17.93;10.03;;;;;;;22.20;59.08;100800.62;124790;1099;102483;-80
2023/05/19 07:19:14;;;;;;;21.17;10.87;;;;;;;22.36;58.27;100801.45;124887;1098;104239;-81
2023/05/19 07:21:47;;;;;;;22.17;11.20;;;;;;;22.44;57.94;100804.94;124374;1100;104226;-76
2023/05/19 07:24:20;;;;;;;22.65;10.85;;;;;;;22.61;58.31;100795.89;126544;1098;104187;-71
2023/05/19 07:26:51;;;;;;;20.93;10.73;;;;;;;22.84;58.18;100790.28;124557;1099;104194;-77
2023/05/19 07:29:20;;;;;;;19.43;10.83;;;;;;;23.08;57.15;100801.66;124810;1099;101992;-82
2023/05/19 07:31:56;;;;;;;22.40;11.10;;;;;;;23.25;56.77;100788.08;124755;1099;104208;-79
2023/05/19 07:34:25;;;;;;;18.67;10.20;;;;;;;23.40;56.37;100781.66;124768;1098;104271;-81
2023/05/19 07:36:57;;;;;;;21.27;10.67;;;;;;;23.75;55.96;100789.23;124707;1099;104270;-76
2023/05/19 07:39:28;;;;;;;20.47;10.10;;;;;;;23.93;54.33;100792.57;124912;1099;102390;-79
2023/05/19 07:41:59;;;;;;;22.50;11.00;;;;;;;24.12;54.43;100779.77;124585;1099;104252;-76
2023/05/19 07:44:31;;;;;;;20.13;10.93;;;;;;;24.29;54.11;100793.78;125130;1098;103060;-79
2023/05/19 07:47:02;;;;;;;19.93;10.30;;;;;;;24.54;53.38;100790.68;124759;1099;104223;-79
2023/05/19 07:49:31;;;;;;;21.37;10.43;;;;;;;24.71;52.53;100782.37;124445;1099;104255;-79
2023/05/19 07:52:00;;;;;;;16.90;9.53;;;;;;;24.89;51.77;100786.52;124656;1102;104014;-78
2023/05/19 07:54:29;;;;;;;20.23;10.23;;;;;;;25.09;51.20;100784.33;124540;1099;103572;-77
2023/05/19 07:56:58;;;;;;;21.50;10.77;;;;;;;25.27;51.34;100787.55;124723;1099;104176;-77
2023/05/19 07:59:26;;;;;;;19.13;10.03;;;;;;;25.30;50.45;100788.39;124937;1099;104261;-79
2023/05/19 08:01:58;;;;;;;22.47;9.63;;;;;;;25.39;50.52;100776.58;125096;1099;104246;-82
2023/05/19 08:04:31;;;;;;;22.27;9.87;;;;;;;25.61;50.44;100776.12;124741;1099;103081;-80
2023/05/19 08:07:06;;;;;;;21.57;10.08;;;;;;;25.75;49.94;100774.00;124864;1099;104237;-81
2023/05/19 08:09:35;;;;;;;19.03;9.73;;;;;;;25.82;49.41;100778.32;125309;1099;104227;-80
2023/05/19 08:12:09;;;;;;;23.23;10.13;;;;;;;25.87;48.76;100777.31;125332;1099;102567;-83
2023/05/19 08:14:44;;;;;;;18.40;10.37;;;;;;;25.96;48.79;100780.69;125320;1099;102495;-82
2023/05/19 08:17:14;;;;;;;22.27;11.03;;;;;;;26.09;47.65;100778.61;125422;1099;102229;-82
2023/05/19 08:19:54;;;;;;;21.37;10.03;;;;;;;26.09;48.08;100773.23;124896;1099;103242;-82
2023/05/19 08:22:24;;;;;;;20.40;10.30;;;;;;;26.21;47.07;100776.54;125970;1099;104114;-77
2023/05/19 08:24:55;;;;;;;25.77;10.73;;;;;;;26.23;46.32;100772.03;125641;1099;104233;-81
2023/05/19 08:27:49;;;;;;;17.83;9.67;;;;;;;26.22;45.84;100778.31;126014;1099;104290;-77
2023/05/19 08:30:28;;;;;;;21.33;9.70;;;;;;;26.21;45.96;100768.47;126260;1099;102264;-79
2023/05/19 08:33:05;;;;;;;18.97;9.60;;;;;;;26.25;45.86;100765.66;126611;1098;102446;-80
2023/05/19 08:35:40;;;;;;;21.67;10.33;;;;;;;26.35;45.63;100767.22;126902;1098;102561;-80
2023/05/19 08:38:11;;;;;;;18.37;9.30;;;;;;;26.43;45.50;100761.64;126881;1098;101410;-80
2023/05/19 08:40:57;;;;;;;22.40;10.07;;;;;;;26.54;45.11;100774.81;126255;1098;104239;-80
2023/05/19 08:43:34;;;;;;;21.40;10.40;;;;;;;26.58;45.48;100762.15;125276;1099;104159;-85
2023/05/19 08:46:07;;;;;;;19.10;9.77;;;;;;;26.62;44.74;100767.41;125463;1099;102691;-85
2023/05/19 08:48:42;;;;;;;21.77;9.97;;;;;;;26.64;44.85;100764.67;126036;1098;104335;-78
2023/05/19 08:51:28;;;;;;;24.63;10.43;;;;;;;26.63;44.09;100757.52;125160;1098;104262;-81
2023/05/19 08:54:08;;;;;;;19.07;9.93;;;;;;;26.71;44.27;100760.94;126018;1099;110819;-79
2023/05/19 08:56:40;;;;;;;17.93;10.00;;;;;;;26.72;43.80;100763.59;125354;1099;102114;-81
2023/05/19 08:59:13;;;;;;;20.77;10.20;;;;;;;26.73;43.16;100770.72;126227;1098;103104;-83
2023/05/19 09:01:53;;;;;;;18.00;10.23;;;;;;;26.77;43.29;100746.41;125644;1099;102169;-82
2023/05/19 09:04:51;;;;;;;20.40;10.53;;;;;;;26.81;42.18;100750.80;126307;1099;103166;-83
2023/05/19 09:07:22;;;;;;;15.97;9.10;;;;;;;26.84;41.95;100740.81;126206;1099;103391;-84
2023/05/19 09:09:58;;;;;;;18.60;10.03;;;;;;;26.78;40.88;100743.67;126403;1099;102755;-85
2023/05/19 09:12:36;;;;;;;18.37;10.30;;;;;;;26.83;40.86;100735.47;125739;1099;104421;-84
2023/05/19 09:15:19;;;;;;;16.30;9.20;;;;;;;26.88;41.17;100733.53;126406;1099;103203;-82
2023/05/19 09:18:02;;;;;;;20.77;10.10;;;;;;;26.97;40.18;100732.39;126169;1098;103304;-80
2023/05/19 09:20:36;;;;;;;18.20;9.65;;;;;;;26.96;40.16;100738.70;125615;1099;103321;-82
2023/05/19 09:23:05;;;;;;;19.48;10.65;;;;;;;26.88;40.35;100729.05;125784;1098;104178;-80
2023/05/19 09:25:34;;;;;;;19.80;10.00;;;;;;;26.82;40.36;100734.60;125062;1099;104201;-78
2023/05/19 09:28:09;;;;;;;19.90;10.13;;;;;;;26.88;39.97;100726.36;124467;1099;104271;-80
2023/05/19 09:30:38;;;;;;;19.10;9.80;;;;;;;26.88;39.80;100725.45;125052;1099;104213;-76
2023/05/19 09:33:08;;;;;;;17.93;9.97;;;;;;;26.94;39.83;100710.94;124857;1099;103417;-83
2023/05/19 09:35:39;;;;;;;20.17;10.37;;;;;;;27.12;38.91;100707.71;125212;1099;103357;-83
2023/05/19 09:38:16;;;;;;;18.80;10.20;;;;;;;27.32;38.99;100703.58;125899;1099;103417;-82
2023/05/19 09:40:55;;;;;;;16.87;10.13;;;;;;;27.45;38.67;100704.95;126264;1099;102564;-81
2023/05/19 09:43:26;;;;;;;17.30;9.57;;;;;;;27.43;38.67;100706.81;124949;1099;104300;-81
2023/05/19 09:46:03;;;;;;;19.90;9.43;;;;;;;27.43;39.33;100706.81;126633;1099;102558;-81
2023/05/19 09:48:36;;;;;;;19.20;9.90;;;;;;;27.35;38.76;100714.27;126361;1099;101767;-83
2023/05/19 09:51:10;;;;;;;19.60;10.00;;;;;;;27.23;38.69;100710.09;127008;1099;102625;-82
2023/05/19 09:53:46;;;;;;;18.37;9.70;;;;;;;27.11;39.15;100705.94;126786;1099;102134;-83
2023/05/19 09:56:27;;;;;;;19.40;10.30;;;;;;;27.01;39.38;100712.54;125880;1099;102337;-82
2023/05/19 09:59:02;;;;;;;19.30;9.90;;;;;;;26.90;38.82;100702.95;125629;1099;104169;-80
2023/05/19 10:01:49;;;;;;;20.57;9.90;;;;;;;26.92;38.80;100708.30;125420;1099;103397;-82
2023/05/19 10:04:30;;;;;;;21.80;9.63;;;;;;;26.93;39.17;100711.86;126200;1098;104399;-82
2023/05/19 10:07:30;;;;;;;19.43;10.40;;;;;;;27.03;39.01;100699.91;125966;1099;102429;-82
2023/05/19 10:10:05;;;;;;;20.63;10.27;;;;;;;26.99;38.58;100695.52;125835;1099;103560;-84
2023/05/19 10:12:38;;;;;;;18.10;9.60;;;;;;;26.93;38.95;100701.09;126293;1098;102397;-82
2023/05/19 10:15:18;;;;;;;20.10;10.43;;;;;;;26.87;39.30;100694.96;126447;1099;102212;-84
2023/05/19 10:17:53;;;;;;;24.43;10.60;;;;;;;26.84;38.84;100697.74;126559;1099;103555;-80
2023/05/19 10:20:29;;;;;;;18.83;10.13;;;;;;;26.96;39.12;100696.52;125914;1102;103527;-85
2023/05/19 10:23:01;;;;;;;21.37;9.93;;;;;;;27.17;39.16;100686.03;125789;1102;102191;-82
2023/05/19 10:25:36;;;;;;;19.33;10.63;;;;;;;27.25;39.18;100682.19;125919;1099;102307;-82
2023/05/19 10:28:10;;;;;;;20.63;10.40;;;;;;;27.33;39.19;100683.77;126400;1099;104127;-83
2023/05/19 10:30:47;;;;;;;19.17;10.27;;;;;;;27.46;38.73;100678.88;125938;1099;102599;-85
2023/05/19 10:33:22;;;;;;;19.00;10.50;;;;;;;27.46;39.05;100677.08;126335;1099;102409;-80
2023/05/19 10:36:08;;;;;;;19.60;9.63;;;;;;;27.42;38.51;100678.09;126351;1099;102243;-80
2023/05/19 10:38:48;;;;;;;18.10;9.47;;;;;;;27.35;38.24;100671.16;126397;1098;101914;-80
2023/05/19 10:41:26;;;;;;;17.33;9.67;;;;;;;27.30;38.14;100670.36;125460;1099;104118;-81
2023/05/19 10:44:09;;;;;;;18.87;10.33;;;;;;;27.29;38.13;100661.41;125560;1102;103625;-80
2023/05/19 10:46:45;;;;;;;16.13;9.13;;;;;;;27.22;38.07;100666.11;126389;1099;107913;-83
2023/05/19 10:49:22;;;;;;;18.87;10.20;;;;;;;27.06;37.92;100664.80;125907;1099;104484;-80
2023/05/19 10:51:57;;;;;;;20.80;9.50;;;;;;;26.86;37.56;100666.27;125772;1099;103225;-82
2023/05/19 10:54:53;;;;;;;20.43;9.97;;;;;;;26.73;37.66;100662.19;125902;1099;104300;-81
2023/05/19 10:57:31;;;;;;;16.27;9.27;;;;;;;26.61;37.79;100666.06;125874;1099;118929;-80
2023/05/19 11:00:26;;;;;;;19.23;9.43;;;;;;;26.73;37.41;100667.56;125608;1099;104329;-85
2023/05/19 11:03:22;;;;;;;20.70;9.37;;;;;;;26.75;37.17;100654.94;124815;1099;104169;-83
2023/05/19 11:06:19;;;;;;;21.70;9.90;;;;;;;26.72;36.33;100665.80;125185;1099;103075;-82
2023/05/19 11:08:59;;;;;;;21.57;10.70;;;;;;;26.71;36.83;100669.44;126307;1099;102268;-85
2023/05/19 11:11:45;;;;;;;22.10;9.53;;;;;;;26.88;35.82;100659.05;117552;1099;10001837;-82
2023/05/19 11:14:25;;;;;;;18.87;10.33;;;;;;;26.95;36.36;100664.25;126113;1099;101738;-80
2023/05/19 11:16:59;;;;;;;16.87;9.30;;;;;;;26.87;36.33;100661.78;125441;1099;104258;-80
2023/05/19 11:19:31;;;;;;;16.53;8.67;;;;;;;26.86;36.13;100665.39;125554;1099;102135;-83